createdAt,value
2018-01-11T00:01:38.102Z,8.60
2018-01-11T00:04:05.585Z,7.73
2018-01-11T00:06:33.045Z,8.97
2018-01-11T00:09:00.555Z,8.00
2018-01-11T00:11:28.014Z,9.30
2018-01-11T00:13:55.469Z,9.47
2018-01-11T00:16:22.945Z,9.70
2018-01-11T00:18:50.408Z,9.37
2018-01-11T00:21:17.885Z,9.80
2018-01-11T00:23:45.345Z,10.90
2018-01-11T00:26:12.822Z,10.13
2018-01-11T00:28:40.277Z,9.90
2018-01-11T00:31:07.765Z,9.87
2018-01-11T00:33:35.229Z,10.33
2018-01-11T00:36:02.690Z,10.70
2018-01-11T00:38:30.275Z,9.87
2018-01-11T00:40:57.756Z,10.27
2018-01-11T00:43:25.225Z,10.60
2018-01-11T00:45:52.713Z,9.93
2018-01-11T00:48:20.161Z,10.53
2018-01-11T00:50:47.636Z,10.67
2018-01-11T00:53:15.134Z,11.40
2018-01-11T00:55:42.621Z,10.80
2018-01-11T00:58:10.081Z,12.43
2018-01-11T01:00:37.561Z,11.90
2018-01-11T01:03:05.814Z,10.70
2018-01-11T01:05:33.274Z,11.40
2018-01-11T01:08:00.765Z,11.90
2018-01-11T01:10:29.000Z,10.80
2018-01-11T01:12:56.458Z,11.30
2018-01-11T01:15:23.934Z,11.03
2018-01-11T01:17:51.405Z,11.90
2018-01-11T01:20:19.632Z,11.57
2018-01-11T01:22:47.112Z,11.70
2018-01-11T01:25:14.566Z,10.37
2018-01-11T01:27:42.049Z,12.20
2018-01-11T01:30:10.349Z,10.37
2018-01-11T01:32:37.810Z,10.67
2018-01-11T01:35:05.290Z,12.63
2018-01-11T01:37:32.750Z,12.77
2018-01-11T01:40:00.227Z,13.10
2018-01-11T01:42:28.116Z,12.97
2018-01-11T01:44:55.614Z,13.23
2018-01-11T01:47:23.080Z,13.80
2018-01-11T01:49:50.556Z,13.30
2018-01-11T01:52:18.010Z,14.20
2018-01-11T01:54:45.493Z,14.60
2018-01-11T01:57:12.948Z,14.87
2018-01-11T01:59:40.465Z,12.33
2018-01-11T02:02:07.950Z,14.87
2018-01-11T02:04:35.405Z,15.80
2018-01-11T02:07:02.858Z,14.50
2018-01-11T02:09:30.334Z,12.97
2018-01-11T02:11:57.796Z,16.63
2018-01-11T02:14:25.278Z,14.80
2018-01-11T02:16:52.739Z,14.80
2018-01-11T02:19:20.217Z,15.53
2018-01-11T02:21:48.474Z,15.83
2018-01-11T02:24:15.925Z,15.40
2018-01-11T02:26:43.374Z,15.73
2018-01-11T02:29:10.858Z,15.33
2018-01-11T02:31:38.308Z,14.90
2018-01-11T02:34:05.804Z,17.90
2018-01-11T02:36:33.297Z,16.50
2018-01-11T02:39:00.753Z,19.53
2018-01-11T02:41:28.245Z,18.10
2018-01-11T02:43:56.473Z,18.17
2018-01-11T02:46:23.922Z,19.33
2018-01-11T02:48:51.414Z,19.27
2018-01-11T02:51:18.873Z,18.00
2018-01-11T02:53:46.346Z,18.17
2018-01-11T02:56:13.847Z,18.40
2018-01-11T02:58:41.309Z,18.77
2018-01-11T03:01:08.794Z,19.30
2018-01-11T03:03:36.258Z,20.13
2018-01-11T03:06:03.718Z,18.23
2018-01-11T03:08:31.201Z,18.53
2018-01-11T03:10:58.679Z,19.23
2018-01-11T03:13:26.165Z,16.57
2018-01-11T03:15:53.655Z,17.90
2018-01-11T03:18:21.146Z,19.20
2018-01-11T03:20:49.390Z,17.87
2018-01-11T03:23:16.841Z,18.50
2018-01-11T03:25:44.333Z,19.17
2018-01-11T03:28:12.609Z,21.47
2018-01-11T03:30:40.837Z,19.80
2018-01-11T03:33:08.329Z,19.40
2018-01-11T03:35:35.809Z,20.47
2018-01-11T03:38:04.024Z,19.50
2018-01-11T03:40:31.499Z,20.00
2018-01-11T03:42:58.959Z,20.10
2018-01-11T03:45:26.439Z,20.50
2018-01-11T03:47:53.895Z,18.60
2018-01-11T03:50:21.361Z,19.80
2018-01-11T03:52:48.825Z,19.70
2018-01-11T03:55:17.077Z,19.27
2018-01-11T03:57:44.569Z,20.00
2018-01-11T04:00:12.798Z,19.47
2018-01-11T04:02:40.274Z,19.23
2018-01-11T04:05:07.763Z,20.00
2018-01-11T04:07:36.038Z,18.27
2018-01-11T04:10:04.262Z,19.27
2018-01-11T04:12:31.754Z,20.03
2018-01-11T04:14:59.225Z,19.17
2018-01-11T04:17:27.461Z,22.27
2018-01-11T04:19:55.808Z,22.60
2018-01-11T04:22:23.281Z,21.10
2018-01-11T04:24:51.061Z,21.17
2018-01-11T04:27:18.554Z,20.90
2018-01-11T04:29:46.036Z,21.70
2018-01-11T04:32:14.268Z,21.90
2018-01-11T04:34:41.736Z,19.10
2018-01-11T04:37:09.202Z,20.40
2018-01-11T04:39:36.687Z,18.10
2018-01-11T04:42:04.171Z,19.57
2018-01-11T04:44:31.641Z,20.37
2018-01-11T04:46:59.112Z,17.93
2018-01-11T04:49:26.598Z,19.40
2018-01-11T04:51:54.086Z,18.90
2018-01-11T04:54:21.538Z,20.40
2018-01-11T04:56:49.216Z,20.33
2018-01-11T04:59:16.785Z,19.60
2018-01-11T05:01:44.242Z,19.33
2018-01-11T05:04:11.705Z,20.53
2018-01-11T05:06:39.195Z,19.83
2018-01-11T05:09:06.641Z,20.17
2018-01-11T05:11:34.122Z,20.80
2018-01-11T05:14:01.570Z,22.77
2018-01-11T05:16:29.050Z,22.30
2018-01-11T05:18:56.629Z,18.90
2018-01-11T05:21:24.090Z,20.60
2018-01-11T05:23:51.574Z,21.77
2018-01-11T05:26:19.057Z,19.60
2018-01-11T05:28:46.530Z,22.70
2018-01-11T05:31:14.038Z,24.37
2018-01-11T05:33:41.517Z,24.07
2018-01-11T05:36:09.001Z,24.47
2018-01-11T05:38:36.450Z,23.57
2018-01-11T05:41:03.931Z,23.30
2018-01-11T05:43:31.710Z,25.20
2018-01-11T05:45:59.166Z,24.93
2018-01-11T05:48:26.740Z,25.07
2018-01-11T05:50:54.217Z,22.97
2018-01-11T05:53:21.707Z,24.73
2018-01-11T05:55:49.157Z,24.80
2018-01-11T05:58:16.636Z,23.77
2018-01-11T06:00:44.097Z,24.30
2018-01-11T06:03:11.589Z,24.20
2018-01-11T06:05:39.324Z,26.40
2018-01-11T06:08:06.833Z,24.60
2018-01-11T06:10:34.333Z,24.60
2018-01-11T06:13:02.112Z,25.60
2018-01-11T06:15:29.578Z,24.27
2018-01-11T06:17:58.506Z,25.77
2018-01-11T06:20:25.988Z,24.87
2018-01-11T06:22:53.433Z,24.63
2018-01-11T06:25:20.921Z,24.73
2018-01-11T06:27:48.377Z,25.03
2018-01-11T06:30:15.860Z,23.50
2018-01-11T06:32:43.319Z,27.50
2018-01-11T06:35:10.820Z,24.37
2018-01-11T06:37:38.289Z,24.17
2018-01-11T06:40:06.649Z,25.37
2018-01-11T06:42:34.167Z,24.23
2018-01-11T06:45:01.695Z,24.80
2018-01-11T06:47:30.150Z,24.10
2018-01-11T06:49:57.825Z,22.90
2018-01-11T06:52:25.333Z,21.70
2018-01-11T06:54:52.789Z,24.30
2018-01-11T06:57:21.041Z,24.30
2018-01-11T06:59:48.509Z,23.70
2018-01-11T07:02:16.018Z,23.77
2018-01-11T07:04:43.470Z,23.80
2018-01-11T07:07:10.941Z,25.80
2018-01-11T07:09:38.446Z,25.00
2018-01-11T07:12:05.915Z,22.50
2018-01-11T07:14:33.404Z,23.67
2018-01-11T07:17:00.849Z,24.40
2018-01-11T07:19:29.134Z,23.20
2018-01-11T07:21:56.602Z,23.40
2018-01-11T07:24:24.097Z,23.77
2018-01-11T07:26:51.577Z,24.33
2018-01-11T07:29:19.033Z,22.27
2018-01-11T07:31:46.506Z,23.13
2018-01-11T07:34:14.774Z,25.30
2018-01-11T07:36:42.222Z,24.07
2018-01-11T07:39:09.709Z,25.80
2018-01-11T07:41:37.940Z,25.87
2018-01-11T07:44:05.426Z,24.47
2018-01-11T07:46:32.882Z,24.10
2018-01-11T07:49:00.362Z,23.53
2018-01-11T07:51:27.858Z,25.97
2018-01-11T07:53:55.321Z,25.60
2018-01-11T07:56:22.793Z,26.40
2018-01-11T07:58:50.274Z,25.60
2018-01-11T08:01:17.729Z,28.17
2018-01-11T08:03:45.221Z,24.63
2018-01-11T08:06:12.693Z,24.60
2018-01-11T08:08:40.222Z,23.40
2018-01-11T08:11:08.477Z,23.40
2018-01-11T08:13:35.964Z,23.77
2018-01-11T08:16:04.245Z,24.80
2018-01-11T08:18:31.732Z,24.67
2018-01-11T08:20:59.190Z,26.23
2018-01-11T08:23:26.682Z,25.40
2018-01-11T08:25:54.210Z,24.30
2018-01-11T08:28:21.670Z,25.93
2018-01-11T08:30:49.893Z,23.43
2018-01-11T08:33:18.145Z,25.80
2018-01-11T08:35:45.598Z,27.30
2018-01-11T08:38:13.073Z,27.07
2018-01-11T08:40:40.548Z,26.80
2018-01-11T08:43:08.034Z,26.20
2018-01-11T08:45:35.509Z,26.80
2018-01-11T08:48:02.960Z,25.00
2018-01-11T08:50:30.446Z,26.87
2018-01-11T08:52:57.942Z,27.97
2018-01-11T08:55:26.178Z,25.63
2018-01-11T08:57:53.657Z,26.97
2018-01-11T09:00:21.142Z,27.33
2018-01-11T09:02:49.369Z,25.37
2018-01-11T09:05:16.846Z,24.77
2018-01-11T09:07:44.323Z,27.30
2018-01-11T09:10:12.586Z,24.03
2018-01-11T09:12:40.055Z,24.83
2018-01-11T09:15:08.317Z,25.03
2018-01-11T09:17:35.931Z,26.90
2018-01-11T09:20:03.403Z,24.10
2018-01-11T09:22:30.864Z,25.43
2018-01-11T09:24:58.337Z,24.13
2018-01-11T09:27:25.843Z,25.00
2018-01-11T09:29:54.110Z,26.30
2018-01-11T09:32:22.341Z,25.87
2018-01-11T09:34:49.829Z,23.13
2018-01-11T09:37:17.308Z,22.10
2018-01-11T09:39:45.582Z,22.57
2018-01-11T09:42:13.814Z,23.47
2018-01-11T09:44:41.279Z,24.73
2018-01-11T09:47:08.775Z,25.67
2018-01-11T09:49:37.002Z,23.20
2018-01-11T09:52:04.486Z,23.50
2018-01-11T09:54:32.748Z,22.83
2018-01-11T09:57:00.205Z,26.40
2018-01-11T09:59:27.694Z,23.03
2018-01-11T10:01:56.111Z,23.23
2018-01-11T10:04:23.581Z,23.67
2018-01-11T10:06:51.069Z,23.67
2018-01-11T10:09:18.533Z,21.73
2018-01-11T10:11:46.015Z,22.80
2018-01-11T10:14:14.256Z,24.53
2018-01-11T10:16:41.714Z,22.90
2018-01-11T10:19:09.197Z,24.57
2018-01-11T10:21:36.679Z,25.13
2018-01-11T10:24:04.509Z,23.40
2018-01-11T10:26:31.978Z,23.83
2018-01-11T10:28:59.455Z,24.97
2018-01-11T10:31:27.721Z,21.27
2018-01-11T10:33:55.976Z,23.40
2018-01-11T10:36:23.493Z,23.17
2018-01-11T10:38:50.953Z,25.30
2018-01-11T10:41:18.437Z,24.73
2018-01-11T10:43:45.930Z,24.00
2018-01-11T10:46:13.401Z,27.30
2018-01-11T10:48:41.653Z,24.77
2018-01-11T10:51:09.118Z,26.20
2018-01-11T10:53:36.583Z,24.60
2018-01-11T10:56:04.824Z,25.83
2018-01-11T10:58:32.293Z,26.20
2018-01-11T11:03:59.519Z,26.80
2018-01-11T11:06:26.997Z,25.00
2018-01-11T11:08:54.492Z,22.97
2018-01-11T11:11:21.950Z,23.10
2018-01-11T11:13:49.435Z,23.90
2018-01-11T11:16:16.921Z,24.47
2018-01-11T11:18:44.445Z,25.07
2018-01-11T11:21:12.709Z,23.50
2018-01-11T11:23:40.190Z,26.50
2018-01-11T11:26:08.439Z,23.87
2018-01-11T11:28:35.893Z,25.40
2018-01-11T11:31:03.393Z,24.30
2018-01-11T11:33:30.898Z,24.83
2018-01-11T11:35:58.368Z,26.13
2018-01-11T11:38:25.822Z,23.97
2018-01-11T11:40:53.337Z,22.83
2018-01-11T11:43:20.819Z,25.40
2018-01-11T11:45:48.304Z,22.20
2018-01-11T11:48:15.788Z,25.00
2018-01-11T11:50:44.033Z,24.60
2018-01-11T11:53:11.494Z,22.60
2018-01-11T11:55:38.990Z,23.40
2018-01-11T11:58:06.453Z,20.47
2018-01-11T12:00:33.919Z,23.37
2018-01-11T12:03:01.401Z,23.03
2018-01-11T12:05:28.859Z,21.27
2018-01-11T12:07:56.356Z,24.00
2018-01-11T12:10:23.829Z,25.67
2018-01-11T12:12:51.288Z,23.73
2018-01-11T12:15:18.836Z,24.90
2018-01-11T12:17:46.293Z,26.03
2018-01-11T12:20:13.764Z,24.50
2018-01-11T12:22:41.994Z,23.50
2018-01-11T12:25:10.246Z,24.70
2018-01-11T12:27:37.711Z,23.27
2018-01-11T12:30:05.197Z,24.03
2018-01-11T12:32:32.698Z,24.00
2018-01-11T12:35:00.946Z,26.20
2018-01-11T12:37:28.458Z,26.10
2018-01-11T12:39:55.930Z,25.50
2018-01-11T12:42:23.397Z,23.43
2018-01-11T12:44:50.877Z,23.10
2018-01-11T12:47:18.341Z,25.40
2018-01-11T12:49:45.821Z,23.63
2018-01-11T12:52:13.330Z,24.90
2018-01-11T12:54:41.586Z,24.57
2018-01-11T12:57:09.049Z,23.60
2018-01-11T12:59:36.524Z,24.07
2018-01-11T13:02:04.014Z,23.93
2018-01-11T13:04:31.477Z,23.17
2018-01-11T13:06:59.757Z,24.40
2018-01-11T13:09:28.049Z,25.90
2018-01-11T13:11:56.266Z,25.70
2018-01-11T13:14:24.519Z,23.57
2018-01-11T13:16:52.010Z,24.77
2018-01-11T13:19:19.487Z,24.70
2018-01-11T13:21:46.965Z,25.27
2018-01-11T13:24:15.294Z,26.47
2018-01-11T13:26:42.758Z,25.50
2018-01-11T13:29:17.186Z,25.10
2018-01-11T13:31:44.643Z,25.70
2018-01-11T13:34:12.225Z,26.53
2018-01-11T13:36:39.705Z,24.90
2018-01-11T13:39:07.965Z,24.77
2018-01-11T13:41:35.425Z,26.90
2018-01-11T13:44:03.673Z,25.20
2018-01-11T13:46:31.139Z,24.83
2018-01-11T13:48:58.617Z,26.50
2018-01-11T13:51:26.116Z,25.00
2018-01-11T13:53:53.584Z,25.03
2018-01-11T13:56:21.041Z,24.43
2018-01-11T13:58:48.529Z,27.17
2018-01-11T14:01:15.990Z,26.20
2018-01-11T14:03:43.497Z,24.63
2018-01-11T14:06:10.965Z,26.27
2018-01-11T14:08:38.459Z,24.43
2018-01-11T14:11:05.938Z,25.23
2018-01-11T14:13:33.408Z,24.83
2018-01-11T14:16:01.662Z,24.30
2018-01-11T14:18:29.125Z,24.00
2018-01-11T14:20:56.614Z,23.50
2018-01-11T14:23:24.843Z,22.53
2018-01-11T14:25:52.325Z,23.13
2018-01-11T14:28:19.816Z,24.13
2018-01-11T14:30:47.276Z,25.57
2018-01-11T14:33:14.758Z,24.80
2018-01-11T14:35:42.262Z,22.30
2018-01-11T14:38:09.724Z,25.03
2018-01-11T14:40:37.182Z,24.97
2018-01-11T14:43:04.687Z,24.73
2018-01-11T14:45:32.158Z,24.53
2018-01-11T14:47:59.652Z,25.97
2018-01-11T14:50:27.139Z,26.60
2018-01-11T14:52:54.617Z,23.67
2018-01-11T14:55:22.093Z,23.27
2018-01-11T14:57:49.573Z,24.87
2018-01-11T15:00:17.026Z,26.20
2018-01-11T15:02:44.513Z,25.40
2018-01-11T15:05:11.965Z,24.67
2018-01-11T15:07:39.465Z,25.90
2018-01-11T15:10:07.620Z,25.80
2018-01-11T15:12:35.837Z,25.50
2018-01-11T15:15:03.317Z,25.17
2018-01-11T15:17:30.859Z,27.97
2018-01-11T15:19:58.317Z,25.83
2018-01-11T15:22:25.773Z,24.23
2018-01-11T15:24:53.258Z,27.27
2018-01-11T15:27:20.721Z,26.47
2018-01-11T15:29:48.201Z,26.60
2018-01-11T15:32:15.657Z,25.50
2018-01-11T15:34:43.142Z,25.87
2018-01-11T15:37:10.605Z,26.47
2018-01-11T15:39:38.097Z,27.10
2018-01-11T15:42:05.582Z,23.80
2018-01-11T15:44:33.833Z,25.90
2018-01-11T15:47:01.298Z,27.30
2018-01-11T15:49:28.803Z,26.37
2018-01-11T15:51:56.252Z,26.07
2018-01-11T15:54:23.749Z,23.67
2018-01-11T15:56:51.213Z,29.97
2018-01-11T15:59:18.673Z,30.47
2018-01-11T16:01:46.165Z,28.20
2018-01-11T16:04:13.628Z,28.27
2018-01-11T16:06:41.882Z,29.00
2018-01-11T16:09:09.342Z,29.23
2018-01-11T16:11:36.793Z,29.13
2018-01-11T16:14:04.278Z,28.87
2018-01-11T16:16:31.766Z,27.20
2018-01-11T16:18:59.305Z,28.00
2018-01-11T16:21:26.773Z,27.47
2018-01-11T16:23:54.259Z,28.60
2018-01-11T16:26:21.715Z,27.67
2018-01-11T16:28:49.179Z,27.73
2018-01-11T16:31:16.670Z,28.50
2018-01-11T16:33:44.177Z,26.77
2018-01-11T16:36:11.649Z,27.03
2018-01-11T16:38:39.102Z,26.50
2018-01-11T16:41:06.565Z,28.30
2018-01-11T16:43:34.041Z,31.30
2018-01-11T16:46:02.262Z,31.20
2018-01-11T16:48:29.847Z,31.40
2018-01-11T16:50:57.361Z,31.80
2018-01-11T16:53:24.813Z,32.57
2018-01-11T16:55:52.270Z,36.80
2018-01-11T16:58:19.780Z,32.20
2018-01-11T17:00:47.271Z,32.90
2018-01-11T17:03:14.778Z,35.97
2018-01-11T17:05:42.238Z,33.50
2018-01-11T17:08:09.722Z,31.27
2018-01-11T17:10:37.179Z,31.73
2018-01-11T17:13:04.637Z,33.20
2018-01-11T17:15:32.117Z,32.30
2018-01-11T17:17:59.597Z,30.10
2018-01-11T17:20:27.055Z,32.20
2018-01-11T17:22:54.550Z,30.97
2018-01-11T17:25:22.009Z,33.37
2018-01-11T17:27:49.757Z,34.80
2018-01-11T17:30:18.050Z,32.83
2018-01-11T17:32:46.264Z,31.77
2018-01-11T17:35:13.746Z,32.27
2018-01-11T17:37:41.230Z,35.97
2018-01-11T17:40:09.518Z,38.43
2018-01-11T17:42:37.002Z,39.17
2018-01-11T17:45:04.885Z,39.50
2018-01-11T17:47:33.459Z,41.73
2018-01-11T17:50:01.731Z,40.10
2018-01-11T17:52:29.212Z,39.20
2018-01-11T17:54:56.698Z,39.30
2018-01-11T17:57:25.065Z,37.17
2018-01-11T17:59:52.831Z,38.23
2018-01-11T18:02:20.358Z,38.70
2018-01-11T18:04:47.860Z,38.37
2018-01-11T18:07:15.340Z,36.63
2018-01-11T18:09:42.918Z,38.17
2018-01-11T18:12:10.436Z,39.13
2018-01-11T18:14:38.661Z,34.20
2018-01-11T18:17:06.121Z,33.43
2018-01-11T18:19:33.820Z,33.23
2018-01-11T18:22:01.375Z,35.43
2018-01-11T18:24:28.927Z,34.93
2018-01-11T18:26:56.504Z,34.30
2018-01-11T18:29:24.104Z,35.50
2018-01-11T18:31:51.601Z,33.87
2018-01-11T18:34:19.162Z,35.13
2018-01-11T18:36:46.857Z,34.50
2018-01-11T18:39:14.531Z,33.70
2018-01-11T18:41:42.805Z,34.70
2018-01-11T18:44:10.530Z,35.23
2018-01-11T18:46:38.033Z,32.27
2018-01-11T18:49:06.311Z,31.03
2018-01-11T18:51:34.641Z,31.97
2018-01-11T18:54:02.186Z,36.00
2018-01-11T18:56:29.692Z,32.37
2018-01-11T18:58:57.158Z,32.73
2018-01-11T19:01:25.415Z,31.50
2018-01-11T19:03:52.900Z,34.40
2018-01-11T19:06:21.137Z,33.90
2018-01-11T19:08:48.632Z,30.77
2018-01-11T19:11:16.877Z,30.30
2018-01-11T19:13:44.343Z,31.97
2018-01-11T19:16:11.876Z,30.07
2018-01-11T19:18:39.331Z,28.87
2018-01-11T19:21:06.794Z,32.30
2018-01-11T19:23:34.443Z,31.00
2018-01-11T19:26:01.897Z,30.37
2018-01-11T19:28:29.353Z,31.55
2018-01-11T19:30:56.873Z,28.93
2018-01-11T19:33:24.358Z,30.50
2018-01-11T19:35:51.828Z,30.13
2018-01-11T19:38:19.348Z,32.10
2018-01-11T19:40:46.921Z,31.13
2018-01-11T19:43:14.372Z,32.37
2018-01-11T19:45:42.596Z,31.80
2018-01-11T19:48:10.126Z,31.40
2018-01-11T19:50:37.669Z,31.77
2018-01-11T19:53:05.944Z,28.57
2018-01-11T19:55:33.421Z,26.30
2018-01-11T19:58:00.910Z,30.27
2018-01-11T20:00:28.460Z,29.83
2018-01-11T20:05:33.655Z,30.87
2018-01-11T20:08:01.464Z,28.60
2018-01-11T20:10:29.116Z,27.30
2018-01-11T20:12:56.671Z,27.23
2018-01-11T20:15:24.932Z,29.20
2018-01-11T20:17:52.749Z,29.47
2018-01-11T20:20:20.487Z,29.23
2018-01-11T20:22:47.961Z,30.70
2018-01-11T20:25:15.461Z,28.20
2018-01-11T20:27:42.953Z,28.60
2018-01-11T20:30:10.405Z,31.60
2018-01-11T20:32:37.869Z,31.70
2018-01-11T20:35:05.337Z,33.87
2018-01-11T20:37:33.563Z,35.80
2018-01-11T20:40:01.038Z,34.60
2018-01-11T20:42:28.989Z,34.97
2018-01-11T20:44:56.620Z,39.50
2018-01-11T20:47:24.143Z,32.27
2018-01-11T20:49:51.621Z,32.20
2018-01-11T20:52:19.992Z,34.23
2018-01-11T20:54:47.464Z,34.50
2018-01-11T20:57:14.956Z,33.87
2018-01-11T20:59:42.456Z,33.80
2018-01-11T21:02:09.961Z,32.50
2018-01-11T21:04:37.447Z,30.93
2018-01-11T21:07:04.922Z,31.90
2018-01-11T21:09:32.638Z,32.50
2018-01-11T21:12:00.205Z,33.10
2018-01-11T21:14:27.691Z,33.30
2018-01-11T21:16:55.161Z,34.57
2018-01-11T21:19:22.657Z,31.97
2018-01-11T21:21:50.118Z,30.80
2018-01-11T21:24:17.622Z,29.30
2018-01-11T21:26:45.101Z,29.27
2018-01-11T21:29:12.611Z,32.20
2018-01-11T21:31:40.297Z,29.70
2018-01-11T21:34:07.790Z,30.40
2018-01-11T21:36:36.074Z,28.60
2018-01-11T21:39:04.408Z,28.80
2018-01-11T21:41:32.010Z,27.70
2018-01-11T21:44:00.273Z,27.03
2018-01-11T21:46:27.762Z,29.47
2018-01-11T21:48:56.030Z,30.90
2018-01-11T21:51:24.266Z,29.77
2018-01-11T21:53:51.738Z,32.30
2018-01-11T21:56:19.265Z,27.90
2018-01-11T21:58:46.716Z,29.27
2018-01-11T22:01:14.198Z,31.47
2018-01-11T22:03:41.669Z,31.40
2018-01-11T22:06:09.129Z,31.20
2018-01-11T22:08:36.611Z,29.40
2018-01-11T22:11:04.122Z,27.50
2018-01-11T22:13:31.577Z,29.63
2018-01-11T22:15:59.037Z,31.20
2018-01-11T22:18:26.509Z,27.87
2018-01-11T22:20:54.005Z,26.63
2018-01-11T22:23:22.274Z,29.70
2018-01-11T22:25:50.493Z,28.17
2018-01-11T22:28:18.045Z,29.67
2018-01-11T22:30:45.536Z,26.47
2018-01-11T22:33:13.040Z,28.40
2018-01-11T22:35:40.458Z,27.77
2018-01-11T22:38:07.924Z,26.50
2018-01-11T22:40:35.393Z,24.57
2018-01-11T22:43:02.902Z,24.17
2018-01-11T22:45:30.365Z,27.10
2018-01-11T22:47:57.861Z,24.83
2018-01-11T22:50:25.345Z,25.73
2018-01-11T22:52:53.593Z,22.87
2018-01-11T22:55:21.067Z,25.43
2018-01-11T22:57:48.517Z,23.97
2018-01-11T23:00:22.794Z,24.17
2018-01-11T23:02:50.253Z,24.67
2018-01-11T23:05:17.749Z,22.80
2018-01-11T23:07:45.256Z,23.20
2018-01-11T23:10:12.713Z,22.77
2018-01-11T23:12:40.202Z,22.23
2018-01-11T23:15:07.689Z,23.87
2018-01-11T23:17:35.165Z,22.40
2018-01-11T23:20:03.470Z,23.70
2018-01-11T23:22:30.967Z,24.90
2018-01-11T23:24:58.436Z,24.93
2018-01-11T23:27:25.926Z,24.73
2018-01-11T23:29:53.413Z,22.93
2018-01-11T23:32:20.903Z,23.47
2018-01-11T23:34:48.410Z,25.30
2018-01-11T23:37:15.898Z,21.63
2018-01-11T23:39:43.384Z,27.00
2018-01-11T23:42:10.859Z,27.30
2018-01-11T23:44:38.354Z,24.40
2018-01-11T23:47:05.826Z,24.40
2018-01-11T23:49:34.063Z,25.60
2018-01-11T23:52:01.546Z,24.73
2018-01-11T23:54:29.009Z,25.87
2018-01-11T23:56:56.522Z,25.10
2018-01-11T23:59:24.006Z,25.20
